Briefing drone pour Bourg-de-peage

Rechercher une autre localisation

Conditions de vol :


Nous sommes le : Mardi 09 mars 2021
Il est 00:39 UTC (01:39 LT)

Lever de soleil : 05:36 UTC (06:36 LT)
Coucher de soleil : 18:04 UTC (19:04 LT)

Météo

L'essentiel des conditions de vol

VIGILANCE MÉTÉO FRANCE - Drôme (26)
Pas de vigilances particulieres
CARTE TEMSI
CARTES DES FRONTS
METAR de LFLU
LFLU 081800Z AUTO 36013KT 9999 OVC056 11/02 Q1015

Date d'émission: 08/03/2021
Heure d'émission: 18:00 UTC
Vent: 360° pour 13 KT (24 km/h)
Visibilité horizontale: > 10 km
Plafond :
- Couvert à 5600ft (1707m)
Température: 11 °C
Point de rosée: 2 °C
Humidité: 54%
Pression (QNH): 1015 hPa
Prévision 24h pour Valence (10 km)
Vent : 9° pour 4 KT (15 km/h)
Temperature Maxi: 5 °C
Temperature Min: 5 °C
Humidité : 71%
Condition : Ciel dégagé


WEBCAM POUR BOURG-DE-PEAGE

Réglementation

Voler en sécurité

CARTES AERONAUTIQUE 1/500.000
CARTES VAC (LFLU)
SUP AIP




Chargement des AIP...
NOTAM (BOURG-DE-PEAGE + Terrain à proximité / FIR )




Chargement des NOTAMS...
CONTACT PREFECTURE 26
Drôme (26) : ddt-sdsr@drome.gouv.fr


Avertissement : Les données mises à disposition sont indicatives. Oxygène Drone ne pourra être tenu responsable de dégâts causés aux biens et aux personnes.